createdAt,value
2023-05-04T00:01:11.476Z,62.87
2023-05-04T00:03:39.346Z,62.96
2023-05-04T00:06:06.517Z,62.49
2023-05-04T00:08:36.424Z,63.23
2023-05-04T00:11:03.554Z,63.39
2023-05-04T00:13:30.802Z,64.22
2023-05-04T00:15:58.414Z,63.44
2023-05-04T00:18:25.372Z,63.47
2023-05-04T00:20:52.544Z,64.06
2023-05-04T00:23:22.414Z,64.12
2023-05-04T00:25:49.787Z,64.02
2023-05-04T00:28:16.786Z,64.17
2023-05-04T00:30:48.664Z,64.37
2023-05-04T00:33:20.456Z,64.50
2023-05-04T00:35:50.405Z,64.32
2023-05-04T00:38:19.139Z,64.68
2023-05-04T00:40:46.383Z,65.24
2023-05-04T00:43:13.611Z,65.89
2023-05-04T00:45:41.947Z,65.79
2023-05-04T00:48:09.032Z,65.25
2023-05-04T00:50:36.372Z,64.65
2023-05-04T00:53:11.037Z,63.70
2023-05-04T00:55:41.144Z,64.18
2023-05-04T00:58:10.474Z,64.73
2023-05-04T01:00:37.724Z,64.78
2023-05-04T01:03:04.943Z,64.81
2023-05-04T01:05:43.488Z,64.79
2023-05-04T01:08:15.952Z,65.52
2023-05-04T01:10:42.901Z,65.00
2023-05-04T01:13:19.193Z,66.88
2023-05-04T01:15:46.920Z,66.64
2023-05-04T01:18:14.379Z,66.46
2023-05-04T01:20:44.041Z,66.08
2023-05-04T01:23:11.672Z,65.66
2023-05-04T01:26:04.146Z,65.05
2023-05-04T01:29:26.063Z,66.17
2023-05-04T01:31:54.175Z,65.70
2023-05-04T01:34:22.906Z,64.89
2023-05-04T01:36:53.199Z,65.14
2023-05-04T01:39:21.102Z,65.59
2023-05-04T01:41:50.329Z,66.05
2023-05-04T01:44:17.547Z,65.98
2023-05-04T01:46:44.822Z,65.71
2023-05-04T01:49:11.939Z,65.42
2023-05-04T01:51:39.298Z,66.01
2023-05-04T01:54:06.497Z,65.92
2023-05-04T01:56:33.663Z,66.71
2023-05-04T01:59:00.920Z,66.69
2023-05-04T02:01:28.189Z,67.20
2023-05-04T02:03:58.006Z,67.30
2023-05-04T02:06:25.462Z,67.18
2023-05-04T02:08:54.958Z,67.32
2023-05-04T02:11:22.225Z,68.24
2023-05-04T02:13:51.489Z,69.44
2023-05-04T02:16:18.861Z,69.92
2023-05-04T02:18:46.654Z,70.10
2023-05-04T02:21:14.149Z,70.67
2023-05-04T02:23:43.740Z,71.20
2023-05-04T02:26:11.632Z,70.41
2023-05-04T02:28:39.155Z,70.35
2023-05-04T02:31:06.462Z,70.83
2023-05-04T02:33:33.677Z,70.41
2023-05-04T02:36:03.277Z,71.10
2023-05-04T02:38:30.940Z,70.61
2023-05-04T02:41:03.066Z,70.60
2023-05-04T02:43:32.578Z,70.28
2023-05-04T02:45:59.914Z,71.23
2023-05-04T02:48:27.318Z,70.37
2023-05-04T02:50:55.365Z,71.33
2023-05-04T02:53:23.269Z,71.18
2023-05-04T02:55:51.085Z,70.62
2023-05-04T02:58:18.069Z,72.80
2023-05-04T03:00:47.629Z,73.25
2023-05-04T03:03:17.426Z,72.69
2023-05-04T03:05:45.736Z,72.84
2023-05-04T03:08:12.986Z,85.60
2023-05-04T03:10:43.101Z,87.33
2023-05-04T03:13:15.506Z,83.50
2023-05-04T03:15:43.361Z,79.88
2023-05-04T03:18:12.619Z,77.01
2023-05-04T03:20:43.149Z,74.89
2023-05-04T03:23:10.935Z,74.68
2023-05-04T03:25:38.297Z,73.77
2023-05-04T03:28:09.523Z,74.10
2023-05-04T03:30:46.324Z,74.50
2023-05-04T03:33:15.979Z,73.65
2023-05-04T03:35:43.172Z,74.21
2023-05-04T03:38:11.496Z,74.13
2023-05-04T03:40:41.260Z,73.74
2023-05-04T03:43:09.122Z,72.30
2023-05-04T03:45:36.998Z,72.44
2023-05-04T03:48:06.542Z,72.61
2023-05-04T03:50:33.883Z,72.12
2023-05-04T03:53:06.166Z,72.28
2023-05-04T03:55:36.051Z,72.38
2023-05-04T03:58:04.021Z,72.81
2023-05-04T04:00:33.504Z,71.47
2023-05-04T04:03:00.845Z,72.51
2023-05-04T04:05:28.392Z,72.38
2023-05-04T04:07:58.580Z,72.85
2023-05-04T04:10:30.927Z,72.74
2023-05-04T04:12:58.147Z,71.98
2023-05-04T04:15:25.349Z,71.63
2023-05-04T04:17:59.320Z,71.03
2023-05-04T04:20:26.518Z,71.41
2023-05-04T04:22:54.348Z,70.29
2023-05-04T04:25:21.483Z,70.54
2023-05-04T04:27:48.819Z,70.44
2023-05-04T04:30:16.839Z,70.34
2023-05-04T04:32:44.208Z,71.09
2023-05-04T04:35:14.316Z,70.27
2023-05-04T04:37:41.839Z,71.07
2023-05-04T04:40:10.370Z,70.12
2023-05-04T04:42:38.038Z,69.05
2023-05-04T04:45:06.063Z,70.31
2023-05-04T04:47:34.094Z,68.32
2023-05-04T04:50:06.174Z,67.81
2023-05-04T04:52:39.036Z,67.49
2023-05-04T04:55:09.123Z,67.15
2023-05-04T04:57:36.394Z,65.97
2023-05-04T05:00:08.698Z,65.55
2023-05-04T05:02:38.055Z,65.65
2023-05-04T05:05:08.373Z,64.74
2023-05-04T05:07:36.467Z,64.66
2023-05-04T05:10:04.632Z,63.88
2023-05-04T05:12:34.955Z,63.57
2023-05-04T05:15:04.788Z,62.88
2023-05-04T05:17:32.359Z,62.38
2023-05-04T05:19:59.382Z,62.37
2023-05-04T05:22:29.153Z,60.83
2023-05-04T05:24:56.847Z,61.32
2023-05-04T05:27:26.745Z,60.72
2023-05-04T05:29:54.236Z,59.69
2023-05-04T05:32:21.524Z,59.59
2023-05-04T05:34:48.906Z,59.31
2023-05-04T05:37:18.168Z,58.00
2023-05-04T05:39:47.521Z,57.74
2023-05-04T05:42:17.103Z,57.30
2023-05-04T05:44:46.998Z,57.50
2023-05-04T05:47:14.651Z,57.32
2023-05-04T05:49:46.452Z,56.49
2023-05-04T05:52:18.532Z,55.87
2023-05-04T05:54:48.997Z,56.13
2023-05-04T05:57:16.023Z,54.90
2023-05-04T05:59:46.034Z,55.39
2023-05-04T06:02:18.297Z,56.83
2023-05-04T06:04:45.808Z,57.72
2023-05-04T06:07:13.891Z,56.95
2023-05-04T06:09:40.981Z,57.15
2023-05-04T06:12:15.170Z,57.24
2023-05-04T06:14:44.480Z,56.87
2023-05-04T06:17:14.114Z,56.33
2023-05-04T06:19:47.536Z,56.71
2023-05-04T06:22:18.578Z,55.46
2023-05-04T06:24:46.561Z,56.74
2023-05-04T06:27:13.805Z,58.72
2023-05-04T06:29:43.611Z,57.48
2023-05-04T06:32:11.204Z,58.38
2023-05-04T06:34:41.503Z,58.47
2023-05-04T06:37:14.015Z,55.89
2023-05-04T06:39:42.150Z,55.73
2023-05-04T06:42:14.014Z,55.21
2023-05-04T06:44:41.577Z,54.91
2023-05-04T06:47:08.642Z,54.91
2023-05-04T06:49:36.168Z,55.73
2023-05-04T06:52:06.689Z,56.54
2023-05-04T06:54:33.794Z,56.76
2023-05-04T06:57:04.912Z,54.95
2023-05-04T06:59:32.332Z,55.47
2023-05-04T07:01:59.484Z,54.89
2023-05-04T07:04:26.910Z,54.30
2023-05-04T07:06:54.206Z,52.95
2023-05-04T07:09:26.225Z,51.67
2023-05-04T07:11:53.358Z,51.43
2023-05-04T07:14:22.016Z,51.62
2023-05-04T07:16:49.368Z,51.51
2023-05-04T07:19:16.685Z,50.78
2023-05-04T07:21:43.843Z,50.74
2023-05-04T07:24:13.252Z,51.58
2023-05-04T07:26:40.591Z,50.94
2023-05-04T07:29:07.967Z,50.39
2023-05-04T07:31:36.519Z,50.88
2023-05-04T07:34:06.125Z,50.01
2023-05-04T07:36:42.029Z,48.97
2023-05-04T07:39:13.582Z,49.30
2023-05-04T07:41:40.981Z,48.45
2023-05-04T07:44:11.568Z,48.33
2023-05-04T07:46:39.635Z,47.52
2023-05-04T07:49:09.034Z,47.37
2023-05-04T07:51:36.385Z,47.95
2023-05-04T07:54:03.953Z,47.32
2023-05-04T07:56:31.308Z,46.08
2023-05-04T07:59:01.254Z,47.43
2023-05-04T08:01:32.921Z,46.19
2023-05-04T08:04:02.292Z,46.73
2023-05-04T08:06:31.692Z,46.25
2023-05-04T08:08:58.929Z,45.63
2023-05-04T08:11:26.798Z,43.70
2023-05-04T08:13:54.184Z,43.33
2023-05-04T08:16:23.500Z,43.02
2023-05-04T08:18:50.719Z,41.99
2023-05-04T08:21:20.003Z,41.30
2023-05-04T08:23:49.890Z,41.72
2023-05-04T08:26:17.203Z,41.88
2023-05-04T08:28:47.399Z,42.41
2023-05-04T08:31:14.458Z,41.21
2023-05-04T08:33:41.444Z,40.56
2023-05-04T08:36:11.292Z,40.22
2023-05-04T08:38:38.406Z,39.36
2023-05-04T08:41:06.538Z,40.30
2023-05-04T08:43:37.557Z,39.70
2023-05-04T08:46:05.655Z,38.87
2023-05-04T08:48:36.988Z,37.62
2023-05-04T08:51:08.923Z,37.60
2023-05-04T08:53:41.178Z,37.85
2023-05-04T08:56:16.294Z,38.06
2023-05-04T08:58:53.298Z,38.08
2023-05-04T09:01:21.967Z,37.60
2023-05-04T09:03:49.585Z,37.11
2023-05-04T09:06:17.470Z,38.37
2023-05-04T09:08:44.729Z,38.26
2023-05-04T09:11:12.007Z,37.82
2023-05-04T09:13:43.020Z,37.00
2023-05-04T09:16:10.798Z,35.94
2023-05-04T09:18:40.436Z,37.25
2023-05-04T09:21:08.183Z,37.48
2023-05-04T09:23:50.326Z,35.62
2023-05-04T09:26:39.147Z,34.53
2023-05-04T09:29:16.090Z,34.07
2023-05-04T09:31:52.507Z,34.06
2023-05-04T09:34:23.028Z,34.88
2023-05-04T09:37:03.063Z,35.60
2023-05-04T09:39:30.929Z,35.57
2023-05-04T09:42:01.923Z,34.03
2023-05-04T09:44:29.947Z,34.18
2023-05-04T09:47:01.509Z,34.15
2023-05-04T09:49:39.078Z,32.84
2023-05-04T09:52:07.324Z,33.41
2023-05-04T09:54:36.330Z,33.97
2023-05-04T09:57:23.628Z,34.03
2023-05-04T09:59:55.089Z,32.39
2023-05-04T10:02:23.580Z,32.13
2023-05-04T10:04:58.231Z,32.38
2023-05-04T10:07:26.103Z,32.41
2023-05-04T10:09:54.032Z,31.88
2023-05-04T10:12:23.533Z,31.56
2023-05-04T10:14:50.843Z,32.52
2023-05-04T10:17:48.960Z,32.23
2023-05-04T10:20:44.159Z,31.22
2023-05-04T10:23:20.515Z,31.77
2023-05-04T10:25:54.586Z,33.21
2023-05-04T10:28:39.761Z,33.18
2023-05-04T10:31:07.598Z,33.05
2023-05-04T10:33:45.552Z,32.11
2023-05-04T10:36:17.156Z,31.32
2023-05-04T10:38:44.125Z,30.25
2023-05-04T10:41:22.062Z,29.64
2023-05-04T10:44:03.493Z,30.35
2023-05-04T10:46:30.531Z,30.49
2023-05-04T10:48:57.857Z,29.38
2023-05-04T10:51:32.598Z,29.04
2023-05-04T10:54:08.578Z,28.78
2023-05-04T10:56:36.085Z,29.33
2023-05-04T10:59:17.473Z,29.53
2023-05-04T11:01:45.330Z,30.60
2023-05-04T11:04:24.839Z,31.41
2023-05-04T11:07:06.506Z,29.63
2023-05-04T11:09:44.638Z,29.84
2023-05-04T11:12:15.477Z,29.93
2023-05-04T11:14:43.290Z,30.94
2023-05-04T11:19:52.922Z,30.69
2023-05-04T11:22:20.595Z,30.58
2023-05-04T11:24:51.520Z,30.26
2023-05-04T11:27:29.908Z,30.94
2023-05-04T11:30:05.540Z,31.11
2023-05-04T11:32:46.634Z,30.56
2023-05-04T11:35:20.107Z,30.05
2023-05-04T11:37:50.919Z,28.98
2023-05-04T11:40:26.924Z,28.50
2023-05-04T11:42:57.399Z,28.96
2023-05-04T11:45:33.052Z,28.78
2023-05-04T11:48:05.741Z,28.04
2023-05-04T11:50:33.188Z,28.24
2023-05-04T11:53:12.154Z,29.50
2023-05-04T11:55:39.476Z,29.87
2023-05-04T11:58:09.908Z,30.61
2023-05-04T12:00:49.179Z,30.22
2023-05-04T12:03:50.912Z,29.17
2023-05-04T12:06:19.428Z,29.62
2023-05-04T12:08:48.987Z,30.70
2023-05-04T12:11:25.819Z,30.69
2023-05-04T12:14:07.713Z,30.44
2023-05-04T12:16:35.228Z,30.19
2023-05-04T12:19:13.414Z,30.34
2023-05-04T12:21:58.700Z,29.19
2023-05-04T12:24:27.973Z,31.14
2023-05-04T12:26:55.153Z,31.13
2023-05-04T12:29:29.655Z,31.14
2023-05-04T12:31:56.884Z,30.61
2023-05-04T12:34:24.061Z,29.65
2023-05-04T12:36:53.428Z,28.95
2023-05-04T12:39:20.960Z,29.38
2023-05-04T12:41:47.916Z,29.06
2023-05-04T12:44:15.126Z,30.12
2023-05-04T12:46:44.603Z,29.97
2023-05-04T12:49:14.940Z,30.17
2023-05-04T12:51:42.090Z,29.64
2023-05-04T12:54:11.470Z,28.39
2023-05-04T12:56:39.880Z,27.92
2023-05-04T12:59:09.856Z,27.78
2023-05-04T13:01:37.159Z,29.03
2023-05-04T13:04:04.574Z,28.65
2023-05-04T13:06:33.969Z,28.14
2023-05-04T13:09:06.024Z,28.16
2023-05-04T13:11:33.432Z,27.81
2023-05-04T13:14:01.055Z,28.19
2023-05-04T13:16:30.948Z,29.16
2023-05-04T13:18:58.796Z,28.24
2023-05-04T13:21:27.988Z,28.24
2023-05-04T13:23:59.323Z,28.29
2023-05-04T13:26:26.781Z,28.27
2023-05-04T13:28:54.022Z,28.40
2023-05-04T13:31:23.697Z,28.88
2023-05-04T13:33:50.706Z,28.46
2023-05-04T13:36:18.200Z,28.50
2023-05-04T13:38:48.085Z,28.04
2023-05-04T13:41:15.072Z,27.75
2023-05-04T13:43:47.026Z,27.83
2023-05-04T13:46:14.239Z,28.36
2023-05-04T13:48:44.334Z,28.91
2023-05-04T13:51:13.671Z,29.47
2023-05-04T13:53:40.879Z,29.29
2023-05-04T13:56:08.156Z,29.14
2023-05-04T13:58:37.734Z,30.73
2023-05-04T14:01:05.063Z,29.83
2023-05-04T14:03:33.000Z,29.35
2023-05-04T14:06:00.156Z,29.99
2023-05-04T14:08:29.713Z,29.97
2023-05-04T14:10:57.613Z,29.79
2023-05-04T14:13:25.108Z,29.53
2023-05-04T14:15:54.760Z,30.02
2023-05-04T14:18:22.101Z,30.18
2023-05-04T14:20:51.510Z,29.29
2023-05-04T14:23:21.069Z,28.95
2023-05-04T14:25:57.015Z,29.25
2023-05-04T14:28:27.141Z,30.28
2023-05-04T14:30:54.168Z,31.67
2023-05-04T14:33:23.743Z,30.72
2023-05-04T14:35:57.864Z,31.58
2023-05-04T14:38:24.830Z,31.32
2023-05-04T14:40:55.483Z,30.54
2023-05-04T14:43:24.943Z,30.39
2023-05-04T14:45:53.268Z,30.14
2023-05-04T14:48:23.088Z,30.46
2023-05-04T14:50:53.630Z,31.40
2023-05-04T14:53:21.879Z,30.99
2023-05-04T14:55:51.479Z,30.99
2023-05-04T14:58:18.749Z,30.76
2023-05-04T15:00:51.926Z,30.69
2023-05-04T15:03:22.058Z,30.88
2023-05-04T15:05:53.986Z,30.89
2023-05-04T15:08:21.013Z,31.39
2023-05-04T15:10:52.624Z,32.47
2023-05-04T15:13:20.033Z,33.08
2023-05-04T15:15:49.453Z,32.32
2023-05-04T15:18:16.466Z,31.52
2023-05-04T15:20:43.543Z,31.53
2023-05-04T15:23:10.851Z,31.76
2023-05-04T15:25:41.913Z,31.61
2023-05-04T15:28:11.965Z,31.55
2023-05-04T15:30:45.020Z,31.25
2023-05-04T15:33:12.011Z,32.33
2023-05-04T15:35:40.392Z,32.47
2023-05-04T15:38:07.424Z,32.35
2023-05-04T15:40:34.531Z,32.05
2023-05-04T15:43:01.590Z,31.65
2023-05-04T15:45:28.558Z,32.43
2023-05-04T15:47:58.495Z,32.79
2023-05-04T15:50:26.194Z,33.56
2023-05-04T15:52:53.598Z,32.50
2023-05-04T15:55:26.409Z,32.74
2023-05-04T15:57:56.251Z,33.45
2023-05-04T16:00:23.946Z,33.17
2023-05-04T16:02:53.683Z,33.24
2023-05-04T16:05:26.215Z,33.89
2023-05-04T16:07:53.862Z,34.15
2023-05-04T16:10:23.656Z,33.69
2023-05-04T16:12:50.962Z,33.84
2023-05-04T16:15:18.037Z,33.60
2023-05-04T16:17:45.100Z,33.39
2023-05-04T16:20:12.269Z,33.32
2023-05-04T16:22:39.339Z,33.13
2023-05-04T16:25:08.856Z,34.25
2023-05-04T16:27:39.785Z,34.05
2023-05-04T16:30:08.179Z,33.86
2023-05-04T16:32:35.889Z,33.90
2023-05-04T16:35:06.355Z,33.37
2023-05-04T16:37:37.070Z,33.41
2023-05-04T16:40:15.068Z,33.95
2023-05-04T16:42:45.534Z,33.87
2023-05-04T16:45:13.736Z,33.65
2023-05-04T16:47:44.691Z,33.75
2023-05-04T16:50:13.332Z,33.10
2023-05-04T16:52:40.503Z,33.39
2023-05-04T16:55:11.889Z,34.08
2023-05-04T16:57:41.913Z,34.04
2023-05-04T17:00:13.752Z,34.12
2023-05-04T17:02:40.950Z,34.00
2023-05-04T17:05:10.375Z,34.93
2023-05-04T17:07:43.341Z,34.81
2023-05-04T17:10:14.734Z,34.64
2023-05-04T17:12:49.024Z,34.50
2023-05-04T17:15:16.276Z,34.25
2023-05-04T17:17:44.787Z,35.02
2023-05-04T17:20:16.879Z,35.17
2023-05-04T17:22:47.794Z,34.88
2023-05-04T17:25:15.345Z,36.12
2023-05-04T17:27:44.022Z,36.22
2023-05-04T17:30:12.211Z,36.20
2023-05-04T17:32:42.483Z,36.08
2023-05-04T17:35:24.158Z,36.10
2023-05-04T17:37:58.863Z,36.42
2023-05-04T17:40:30.344Z,36.38
2023-05-04T17:43:00.764Z,36.28
2023-05-04T17:45:30.778Z,36.29
2023-05-04T17:47:59.041Z,36.17
2023-05-04T17:50:29.174Z,36.28
2023-05-04T17:52:56.554Z,36.32
2023-05-04T17:55:31.066Z,36.15
2023-05-04T17:57:58.326Z,36.36
2023-05-04T18:00:28.440Z,36.39
2023-05-04T18:02:55.857Z,38.89
2023-05-04T18:05:23.061Z,41.23
2023-05-04T18:07:52.672Z,43.66
2023-05-04T18:10:20.575Z,44.27
2023-05-04T18:12:48.149Z,45.25
2023-05-04T18:15:16.505Z,45.62
2023-05-04T18:17:53.571Z,46.90
2023-05-04T18:20:20.782Z,47.02
2023-05-04T18:22:50.063Z,47.54
2023-05-04T18:25:17.360Z,48.04
2023-05-04T18:27:48.943Z,48.21
2023-05-04T18:30:15.941Z,48.22
2023-05-04T18:32:43.161Z,48.75
2023-05-04T18:35:13.196Z,48.74
2023-05-04T18:37:43.235Z,48.86
2023-05-04T18:40:11.279Z,49.23
2023-05-04T18:42:38.672Z,49.84
2023-05-04T18:45:07.950Z,50.18
2023-05-04T18:47:35.770Z,50.47
2023-05-04T18:50:02.939Z,51.00
2023-05-04T18:52:32.948Z,51.51
2023-05-04T18:55:00.515Z,52.59
2023-05-04T18:57:29.421Z,51.89
2023-05-04T19:00:01.089Z,52.65
2023-05-04T19:02:30.204Z,53.36
2023-05-04T19:04:58.103Z,52.89
2023-05-04T19:07:25.223Z,52.99
2023-05-04T19:09:53.325Z,53.57
2023-05-04T19:12:25.274Z,53.99
2023-05-04T19:14:58.088Z,54.24
2023-05-04T19:17:29.301Z,54.44
2023-05-04T19:19:57.086Z,54.76
2023-05-04T19:22:27.723Z,55.31
2023-05-04T19:24:56.209Z,55.45
2023-05-04T19:27:26.149Z,55.90
2023-05-04T19:29:56.193Z,56.64
2023-05-04T19:32:28.558Z,55.70
2023-05-04T19:34:55.995Z,56.24
2023-05-04T19:37:23.131Z,56.52
2023-05-04T19:39:50.828Z,56.51
2023-05-04T19:42:19.684Z,57.16
2023-05-04T19:44:47.448Z,56.40
2023-05-04T19:47:14.375Z,57.02
2023-05-04T19:49:47.805Z,57.05
2023-05-04T19:52:17.521Z,57.24
2023-05-04T19:54:48.379Z,57.81
2023-05-04T19:57:18.192Z,57.97
2023-05-04T19:59:47.958Z,58.08
2023-05-04T20:02:15.165Z,57.50
2023-05-04T20:04:47.581Z,58.45
2023-05-04T20:07:18.734Z,58.52
2023-05-04T20:09:46.116Z,58.30
2023-05-04T20:12:15.506Z,58.48
2023-05-04T20:14:47.604Z,58.24
2023-05-04T20:17:15.554Z,58.74
2023-05-04T20:19:43.310Z,59.31
2023-05-04T20:22:11.061Z,59.26
2023-05-04T20:24:38.441Z,59.20
2023-05-04T20:27:08.454Z,59.02
2023-05-04T20:29:36.112Z,59.23
2023-05-04T20:32:05.803Z,59.11
2023-05-04T20:34:33.409Z,58.79
2023-05-04T20:37:00.621Z,59.48
2023-05-04T20:39:28.156Z,59.38
2023-05-04T20:42:00.888Z,60.25
2023-05-04T20:44:28.137Z,59.87
2023-05-04T20:46:57.755Z,60.79
2023-05-04T20:49:24.981Z,60.68
2023-05-04T20:51:54.392Z,61.20
2023-05-04T20:54:21.583Z,60.85
2023-05-04T20:56:50.983Z,60.71
2023-05-04T20:59:18.186Z,60.38
2023-05-04T21:01:47.777Z,61.16
2023-05-04T21:04:15.322Z,60.57
2023-05-04T21:06:42.422Z,61.19
2023-05-04T21:09:10.670Z,61.19
2023-05-04T21:11:40.867Z,61.05
2023-05-04T21:14:09.919Z,61.69
2023-05-04T21:16:39.122Z,62.29
2023-05-04T21:19:06.290Z,61.71
2023-05-04T21:21:40.710Z,61.77
2023-05-04T21:24:14.890Z,61.78
2023-05-04T21:26:42.751Z,61.92
2023-05-04T21:29:16.010Z,62.64
2023-05-04T21:31:43.530Z,62.53
2023-05-04T21:34:10.674Z,62.48
2023-05-04T21:36:39.136Z,61.96
2023-05-04T21:39:09.431Z,62.09
2023-05-04T21:41:39.442Z,63.18
2023-05-04T21:44:09.004Z,62.36
2023-05-04T21:46:38.430Z,62.66
2023-05-04T21:49:05.562Z,62.56
2023-05-04T21:51:34.976Z,62.41
2023-05-04T21:54:04.862Z,61.79
2023-05-04T21:56:32.227Z,61.92
2023-05-04T21:58:59.371Z,62.18
2023-05-04T22:01:29.340Z,61.75
2023-05-04T22:03:58.993Z,62.65
2023-05-04T22:06:25.994Z,62.01
2023-05-04T22:08:53.193Z,62.41
2023-05-04T22:11:20.464Z,62.38
2023-05-04T22:13:47.908Z,62.03
2023-05-04T22:16:15.116Z,62.54
2023-05-04T22:18:47.347Z,61.51
2023-05-04T22:21:14.565Z,61.51
2023-05-04T22:23:43.828Z,61.86
2023-05-04T22:26:15.405Z,61.83
2023-05-04T22:28:42.698Z,61.40
2023-05-04T22:31:09.997Z,61.37
2023-05-04T22:33:39.673Z,60.67
2023-05-04T22:36:12.607Z,60.46
2023-05-04T22:38:39.881Z,60.70
2023-05-04T22:41:09.484Z,59.81
2023-05-04T22:43:39.308Z,60.76
2023-05-04T22:46:14.230Z,60.36
2023-05-04T22:48:43.891Z,59.81
2023-05-04T22:51:13.542Z,59.45
2023-05-04T22:53:40.979Z,59.14
2023-05-04T22:56:10.440Z,58.58
2023-05-04T22:58:37.670Z,58.14
2023-05-04T23:01:10.539Z,58.54
2023-05-04T23:03:38.952Z,58.75
2023-05-04T23:06:06.505Z,58.45
2023-05-04T23:08:36.455Z,57.70
2023-05-04T23:11:03.700Z,57.90
2023-05-04T23:13:31.004Z,57.88
2023-05-04T23:16:01.253Z,58.44
2023-05-04T23:18:28.543Z,58.04
2023-05-04T23:20:58.131Z,58.37
2023-05-04T23:23:25.425Z,58.83
2023-05-04T23:25:52.673Z,58.04
2023-05-04T23:28:20.008Z,58.07
2023-05-04T23:30:47.128Z,57.82
2023-05-04T23:33:14.412Z,57.42
2023-05-04T23:35:41.795Z,57.29
2023-05-04T23:38:09.014Z,57.13
2023-05-04T23:40:36.073Z,57.57
2023-05-04T23:43:03.612Z,57.54
2023-05-04T23:45:30.863Z,57.52
2023-05-04T23:48:00.259Z,57.15
2023-05-04T23:50:29.497Z,58.47
2023-05-04T23:52:59.299Z,57.77
2023-05-04T23:55:27.009Z,57.94
2023-05-04T23:57:56.595Z,57.32
